Latest Coastal Weather Observations for Charles Point

IDD60701

Issued at 9:35 am CST Wednesday 22 October 2014 (issued every 10 minutes, with the page automatically refreshed every 10 minutes)

About coastal observations | Map of coastal stations | Coastal observations for NT | Marine services | Other Formats
Station Details ID: 014031 Name: CHARLES POINT Lat: -12.39 Lon: 130.63 Height: 14.0 m
Data from the previous 72 hours. | See also: Recent months for locations in Northern Territory
Date/Time
CST
Temp

°C
Wind Pressure Rain
since 9am
mm
Weather Cloud Vis
km
Sea
Height
m
Swell
Dir
 
Speed
knots
Gust
knots
hPa Trend Height
m
Period
s
Dir
22/09:30am 29.0 N 3 4 1015.2 - 0.0 - - - - - - -
22/09:00am 28.6 N 4 5 1015.2 - 0.0 - - - - - - -
22/08:30am 28.1 N 5 6 1014.9 - 0.0 - - - - - - -
22/08:00am 27.6 N 5 7 1014.7 - 0.0 - - - - - - -
22/07:30am 27.3 N 7 9 1014.3 - 0.0 - - - - - - -
22/07:00am 27.1 N 6 8 1014.2 - 0.0 - - - - - - -
22/06:30am 27.0 NNE 5 9 1014.0 - 0.0 - - - - - - -
22/06:00am 27.1 N 8 10 1013.6 - 0.0 - - - - - - -
22/05:30am 27.2 NE 8 12 1013.7 - 0.0 - - - - - - -
22/05:00am 27.3 NE 8 11 1013.6 - 0.0 - - - - - - -
22/04:30am 27.4 NE 7 10 1013.3 - 0.0 - - - - - - -
22/04:00am 27.3 NNE 5 8 1013.1 - 0.0 - - - - - - -
22/03:30am 27.4 N 7 9 1012.8 - 0.0 - - - - - - -
22/03:00am 27.4 N 7 9 1012.8 - 0.0 - - - - - - -
22/02:30am 27.5 N 8 11 1013.1 - 0.0 - - - - - - -
22/02:00am 27.6 N 10 13 1013.2 - 0.0 - - - - - - -
22/01:30am 27.7 N 11 14 1013.5 - 0.0 - - - - - - -
22/01:00am 27.9 N 11 14 1014.1 - 0.0 - - - - - - -
22/12:30am 27.8 N 13 16 1014.3 - 0.0 - - - - - - -
22/12:00am 27.8 N 13 16 1014.6 - 0.0 - - - - - - -
 
Date/Time
CST
Temp

°C
Wind Pressure Rain
since 9am
mm
Weather Cloud Vis
km
Sea
Height
m
Swell
Dir
 
Speed
knots
Gust
knots
hPa Trend Height
m
Period
s
Dir
21/11:30pm 28.2 NNW 12 15 1014.7 - 0.0 - - - - - - -
21/11:00pm 28.1 NNW 11 15 1014.9 - 0.0 - - - - - - -
21/10:30pm 28.3 NW 10 15 1014.8 - 0.0 - - - - - - -
21/10:00pm 28.4 NW 10 14 1014.4 - 0.0 - - - - - - -
21/09:30pm 28.6 NW 7 12 1014.1 - 0.0 - - - - - - -
21/09:00pm 27.0 SW 2 4 1013.4 - 0.0 - - - - - - -
21/08:30pm 27.6 SSW 3 4 1012.9 - 0.0 - - - - - - -
21/08:00pm 27.5 SSW 3 5 1012.6 - 0.0 - - - - - - -
21/07:30pm 27.7 N 2 3 1012.4 - 0.0 - - - - - - -
21/07:00pm 29.2 N 2 3 1012.1 - 0.0 - - - - - - -
21/06:30pm 30.7 NNE 4 6 1011.7 - 0.0 - - - - - - -
21/06:00pm 31.1 NNE 5 7 1011.5 - 0.0 - - - - - - -
21/05:30pm 31.3 NNE 6 8 1011.3 - 0.0 - - - - - - -
21/05:00pm 31.2 NNE 6 9 1011.2 - 0.0 - - - - - - -
21/04:30pm 31.2 N 8 10 1011.1 - 0.0 - - - - - - -
21/04:00pm 30.8 N 11 13 1011.0 - 0.0 - - - - - - -
21/03:30pm 30.3 N 10 12 1011.2 - 0.0 - - - - - - -
21/03:00pm 30.3 N 11 14 1011.6 - 0.0 - - - - - - -
21/02:30pm 30.1 N 11 14 1011.8 - 0.0 - - - - - - -
21/02:00pm 30.1 N 10 12 1012.4 - 0.0 - - - - - - -
21/01:30pm 30.3 N 10 13 1013.1 - 0.0 - - - - - - -
21/01:00pm 30.2 N 9 11 1013.8 - 0.0 - - - - - - -
21/12:30pm 30.1 N 8 10 1014.4 - 0.0 - - - - - - -
21/12:00pm 30.3 N 7 9 1015.1 - 0.0 - - - - - - -
21/11:30am 29.9 NNE 6 8 1015.5 - 0.0 - - - - - - -
21/11:00am 30.3 NE 6 8 1015.8 - 0.0 - - - - - - -
21/10:30am 30.4 ENE 6 12 1016.1 - 0.0 - - - - - - -
21/10:00am 30.3 E 6 12 1016.4 - 0.0 - - - - - - -
21/09:30am 29.6 E 6 10 1016.3 - 0.0 - - - - - - -
21/09:00am 28.5 NE 5 8 1015.8 - 0.0 - - - - - - -
21/08:30am 28.9 ENE 8 12 1015.4 - 0.0 - - - - - - -
21/08:00am 28.6 NE 6 9 1015.1 - 0.0 - - - - - - -
21/07:30am 28.3 ENE 5 9 1014.8 - 0.0 - - - - - - -
21/07:00am 27.9 NE 5 8 1014.8 - 0.0 - - - - - - -
21/06:30am 27.7 ENE 6 9 1014.4 - 0.0 - - - - - - -
21/06:00am 27.8 ENE 6 10 1014.1 - 0.0 - - - - - - -
21/05:30am 28.1 NE 5 9 1013.7 - 0.0 - - - - - - -
21/05:00am 28.1 ENE 6 9 1013.8 - 0.0 - - - - - - -
21/04:30am 28.3 ENE 6 11 1013.7 - 0.0 - - - - - - -
21/04:00am 28.2 NNE 6 9 1013.6 - 0.0 - - - - - - -
21/03:30am 27.9 NNE 6 8 1013.3 - 0.0 - - - - - - -
21/03:00am 27.8 NNE 7 10 1013.5 - 0.0 - - - - - - -
21/02:30am 27.8 N 9 11 1013.5 - 0.0 - - - - - - -
21/02:00am 27.9 N 6 8 1013.7 - 0.0 - - - - - - -
21/01:30am 28.0 NNW 7 9 1013.8 - 0.0 - - - - - - -
21/01:00am 27.9 NNW 9 11 1013.9 - 0.0 - - - - - - -
21/12:30am 28.1 N 10 14 1014.1 - 0.0 - - - - - - -
21/12:00am 28.0 NNW 11 16 1014.3 - 0.0 - - - - - - -
 
Date/Time
CST
Temp

°C
Wind Pressure Rain
since 9am
mm
Weather Cloud Vis
km
Sea
Height
m
Swell
Dir
 
Speed
knots
Gust
knots
hPa Trend Height
m
Period
s
Dir
20/11:30pm 28.3 NW 12 17 1014.2 - 0.0 - - - - - - -
20/11:00pm 26.6 W 4 7 1014.2 - 0.0 - - - - - - -
20/10:30pm 25.6 S 3 4 1013.9 - 0.0 - - - - - - -
20/10:00pm 26.5 S 4 5 1013.6 - 0.0 - - - - - - -
20/09:30pm 26.8 SE 1 2 1013.3 - 0.0 - - - - - - -
20/09:00pm 26.9 SSE 4 5 1012.8 - 0.0 - - - - - - -
20/08:30pm 26.5 NNW 3 3 1012.4 - 0.0 - - - - - - -
20/08:00pm 27.0 CALM 0 0 1012.0 - 0.0 - - - - - - -
20/07:30pm 27.6 CALM 0 0 1011.7 - 0.0 - - - - - - -
20/07:00pm 29.3 N 1 2 1011.2 - 0.0 - - - - - - -
20/06:30pm 30.7 N 4 5 1011.1 - 0.0 - - - - - - -
20/06:00pm 30.8 NNE 6 8 1010.8 - 0.0 - - - - - - -
20/05:30pm 30.9 NNE 7 11 1010.4 - 0.0 - - - - - - -
20/05:00pm 30.7 NNE 10 13 1010.2 - 0.0 - - - - - - -
20/04:30pm 30.5 NE 10 14 1010.2 - 0.0 - - - - - - -
20/04:00pm 30.5 NNE 8 12 1010.3 - 0.0 - - - - - - -
20/03:30pm 30.5 NNE 10 13 1010.3 - 0.0 - - - - - - -
20/03:00pm 29.8 N 12 15 1010.3 - 0.0 - - - - - - -
20/02:30pm 29.6 N 11 13 1010.7 - 0.0 - - - - - - -
20/02:00pm 30.0 NNE 10 14 1011.1 - 0.0 - - - - - - -
20/01:30pm 29.9 N 10 14 1011.8 - 0.0 - - - - - - -
20/01:00pm 30.1 N 9 11 1012.5 - 0.0 - - - - - - -
20/12:30pm 30.3 N 8 10 1013.3 - 0.0 - - - - - - -
20/12:00pm 29.8 N 6 8 1013.9 - 0.0 - - - - - - -
20/11:30am 29.7 N 4 5 1014.5 - 0.0 - - - - - - -
20/11:00am 29.6 NNE 4 5 1014.7 - 0.0 - - - - - - -
20/10:30am 29.6 ENE 4 7 1015.2 - 0.0 - - - - - - -
20/10:00am 29.4 ENE 5 8 1015.4 - 0.0 - - - - - - -
20/09:30am 29.2 ENE 4 7 1015.4 - 0.0 - - - - - - -
20/09:00am 29.0 E 4 8 1015.1 - 0.0 - - - - - - -
20/08:30am 28.8 E 4 6 1015.0 - 0.0 - - - - - - -
20/08:00am 28.7 E 4 8 1014.8 - 0.0 - - - - - - -
20/07:30am 28.4 E 4 7 1014.4 - 0.0 - - - - - - -
20/07:00am 27.7 E 4 8 1014.1 - 0.0 - - - - - - -
20/06:30am 27.5 E 4 8 1013.7 - 0.0 - - - - - - -
20/06:00am 27.6 ENE 4 9 1013.6 - 0.0 - - - - - - -
20/05:30am 27.6 E 5 9 1013.2 - 0.0 - - - - - - -
20/05:00am 27.6 ESE 5 8 1013.1 - 0.0 - - - - - - -
20/04:30am 28.0 ENE 6 10 1012.8 - 0.0 - - - - - - -
20/04:00am 27.9 ENE 7 10 1012.8 - 0.0 - - - - - - -
20/03:30am 27.8 NE 5 7 1012.7 - 0.0 - - - - - - -
20/03:00am 27.9 NE 6 9 1012.7 - 0.0 - - - - - - -
20/02:30am 28.0 NNE 6 10 1012.7 - 0.0 - - - - - - -
20/02:00am 28.0 NNE 6 10 1012.9 - 0.0 - - - - - - -
20/01:30am 28.2 NNE 7 10 1013.1 - 0.0 - - - - - - -
20/01:00am 28.3 N 7 10 1013.3 - 0.0 - - - - - - -
20/12:30am 28.4 N 7 9 1013.6 - 0.0 - - - - - - -
20/12:00am 28.5 NNW 7 9 1013.8 - 0.0 - - - - - - -
 
Date/Time
CST
Temp

°C
Wind Pressure Rain
since 9am
mm
Weather Cloud Vis
km
Sea
Height
m
Swell
Dir
 
Speed
knots
Gust
knots
hPa Trend Height
m
Period
s
Dir
19/11:30pm 28.4 NNW 8 10 1013.9 - 0.0 - - - - - - -
19/11:00pm 28.5 NNW 7 10 1013.7 - 0.0 - - - - - - -
19/10:30pm 28.6 WNW 5 8 1013.7 - 0.0 - - - - - - -
19/10:00pm 28.6 W 6 10 1013.4 - 0.0 - - - - - - -
19/09:30pm 28.5 W 7 11 1013.1 - 0.0 - - - - - - -
19/09:00pm 28.5 WNW 11 17 1012.7 - 0.0 - - - - - - -
19/08:30pm 28.5 WNW 12 16 1012.2 - 0.0 - - - - - - -
19/08:00pm 28.8 WNW 12 17 1011.7 - 0.0 - - - - - - -
19/07:30pm 29.8 N 11 15 1011.2 - 0.0 - - - - - - -
19/07:00pm 30.0 NE 7 10 1010.7 - 0.0 - - - - - - -
19/06:30pm 30.2 NE 10 14 1010.1 - 0.0 - - - - - - -
19/06:00pm 30.2 NE 13 17 1009.5 - 0.0 - - - - - - -
19/05:30pm 30.4 NE 12 16 1009.3 - 0.0 - - - - - - -
19/05:00pm 30.4 NE 13 18 1009.2 - 0.0 - - - - - - -
19/04:30pm 30.4 NE 13 18 1009.3 - 0.0 - - - - - - -
19/04:00pm 30.4 NNE 13 18 1009.5 - 0.0 - - - - - - -
19/03:30pm 30.8 NNE 15 20 1009.7 - 0.0 - - - - - - -
19/03:00pm 30.1 NNE 10 15 1010.1 - 0.0 - - - - - - -
19/02:30pm 30.8 NNE 10 15 1010.4 - 0.0 - - - - - - -
19/02:00pm 30.4 NNE 8 12 1010.8 - 0.0 - - - - - - -
19/01:30pm 30.8 NNE 8 10 1011.5 - 0.0 - - - - - - -
19/01:00pm 30.6 NNE 7 12 1012.1 - 0.0 - - - - - - -
19/12:30pm 29.8 NNE 6 9 1012.6 - 0.0 - - - - - - -
19/12:00pm 30.3 NNE 7 9 1013.1 - 0.0 - - - - - - -
19/11:30am 29.8 NNE 6 8 1013.5 - 0.0 - - - - - - -
19/11:00am 29.9 NNE 6 8 1014.0 - 0.0 - - - - - - -
19/10:30am 29.7 NE 6 8 1014.3 - 0.0 - - - - - - -
19/10:00am 29.2 NE 3 5 1014.5 - 0.0 - - - - - - -

Other Formats:

Comma delimited format used in spreadsheet applications
http://www.bom.gov.au/fwo/IDD60701/IDD60701.99510.axf

JavaScript Object Notation format (JSON) in row-major order
http://www.bom.gov.au/fwo/IDD60701/IDD60701.99510.json